createdAt,value
2023-05-30T00:02:09.512Z,2.42
2023-05-30T00:04:37.110Z,1.75
2023-05-30T00:07:04.089Z,1.67
2023-05-30T00:09:30.847Z,2.53
2023-05-30T00:11:57.462Z,2.00
2023-05-30T00:14:24.208Z,2.05
2023-05-30T00:16:50.982Z,1.70
2023-05-30T00:19:17.575Z,1.90
2023-05-30T00:21:46.120Z,1.67
2023-05-30T00:24:13.110Z,2.10
2023-05-30T00:26:39.781Z,2.88
2023-05-30T00:29:06.519Z,1.58
2023-05-30T00:31:33.270Z,1.95
2023-05-30T00:33:59.979Z,2.08
2023-05-30T00:36:26.675Z,2.30
2023-05-30T00:38:53.332Z,1.85
2023-05-30T00:41:19.991Z,1.70
2023-05-30T00:43:46.656Z,2.38
2023-05-30T00:46:14.452Z,1.70
2023-05-30T00:48:41.763Z,2.17
2023-05-30T00:51:11.864Z,1.70
2023-05-30T00:53:41.389Z,1.70
2023-05-30T00:56:08.953Z,2.13
2023-05-30T00:58:36.801Z,1.85
2023-05-30T01:01:03.619Z,1.73
2023-05-30T01:03:33.906Z,2.13
2023-05-30T01:06:02.442Z,1.83
2023-05-30T01:08:29.170Z,1.73
2023-05-30T01:11:05.086Z,1.40
2023-05-30T01:13:44.635Z,1.85
2023-05-30T01:16:18.532Z,1.83
2023-05-30T01:18:51.626Z,1.58
2023-05-30T01:21:21.538Z,1.73
2023-05-30T01:23:51.492Z,2.00
2023-05-30T01:26:34.508Z,1.45
2023-05-30T01:29:03.743Z,1.52
2023-05-30T01:31:34.461Z,1.63
2023-05-30T01:34:02.545Z,1.33
2023-05-30T01:36:30.296Z,1.58
2023-05-30T01:38:56.860Z,1.48
2023-05-30T01:41:30.581Z,1.52
2023-05-30T01:44:08.442Z,1.52
2023-05-30T01:46:44.114Z,2.22
2023-05-30T01:49:21.905Z,1.85
2023-05-30T01:52:03.818Z,2.22
2023-05-30T01:54:33.368Z,1.73
2023-05-30T01:57:13.311Z,1.73
2023-05-30T01:59:41.537Z,1.25
2023-05-30T02:02:09.720Z,2.05
2023-05-30T02:04:36.970Z,1.90
2023-05-30T02:07:04.455Z,1.98
2023-05-30T02:09:31.405Z,2.55
2023-05-30T02:11:58.205Z,1.50
2023-05-30T02:14:24.878Z,1.90
2023-05-30T02:16:51.519Z,1.70
2023-05-30T02:19:18.229Z,1.50
2023-05-30T02:21:44.950Z,1.77
2023-05-30T02:24:13.391Z,1.20
2023-05-30T02:26:40.082Z,1.60
2023-05-30T02:29:06.741Z,2.20
2023-05-30T02:31:33.426Z,1.65
2023-05-30T02:34:00.152Z,1.58
2023-05-30T02:36:26.819Z,1.92
2023-05-30T02:38:53.428Z,1.83
2023-05-30T02:41:20.012Z,3.17
2023-05-30T02:43:46.676Z,1.40
2023-05-30T02:46:13.432Z,1.85
2023-05-30T02:48:40.078Z,1.80
2023-05-30T02:51:06.768Z,1.27
2023-05-30T02:53:33.425Z,1.83
2023-05-30T02:56:00.092Z,2.13
2023-05-30T02:58:27.086Z,1.50
2023-05-30T03:00:53.692Z,1.90
2023-05-30T03:03:22.332Z,2.55
2023-05-30T03:05:49.127Z,1.90
2023-05-30T03:08:25.543Z,2.10
2023-05-30T03:10:52.481Z,2.00
2023-05-30T03:13:19.097Z,2.45
2023-05-30T03:15:45.803Z,2.20
2023-05-30T03:18:12.468Z,2.47
2023-05-30T03:20:39.236Z,2.08
2023-05-30T03:23:06.340Z,1.77
2023-05-30T03:25:33.501Z,1.95
2023-05-30T03:28:00.269Z,2.30
2023-05-30T03:30:28.561Z,3.42
2023-05-30T03:32:55.892Z,2.83
2023-05-30T03:35:22.624Z,2.20
2023-05-30T03:37:49.277Z,2.50
2023-05-30T03:40:16.307Z,2.60
2023-05-30T03:42:44.633Z,2.42
2023-05-30T03:45:12.077Z,1.80
2023-05-30T03:47:38.720Z,2.70
2023-05-30T03:50:05.998Z,2.42
2023-05-30T03:52:32.607Z,2.67
2023-05-30T03:54:59.269Z,2.60
2023-05-30T03:57:25.893Z,2.75
2023-05-30T03:59:53.252Z,2.22
2023-05-30T04:02:20.079Z,2.78
2023-05-30T04:04:46.862Z,3.22
2023-05-30T04:07:16.361Z,2.22
2023-05-30T04:09:43.022Z,2.70
2023-05-30T04:12:10.216Z,2.25
2023-05-30T04:14:36.863Z,2.88
2023-05-30T04:17:03.603Z,3.17
2023-05-30T04:19:30.509Z,2.67
2023-05-30T04:21:57.096Z,2.40
2023-05-30T04:24:23.878Z,3.40
2023-05-30T04:26:51.792Z,3.13
2023-05-30T04:29:21.635Z,2.47
2023-05-30T04:31:49.005Z,3.08
2023-05-30T04:34:18.767Z,2.35
2023-05-30T04:36:45.763Z,3.03
2023-05-30T04:39:12.876Z,2.95
2023-05-30T04:41:41.522Z,3.17
2023-05-30T04:44:08.383Z,3.22
2023-05-30T04:46:36.878Z,3.13
2023-05-30T04:49:03.954Z,2.40
2023-05-30T04:51:31.175Z,2.72
2023-05-30T04:53:57.878Z,2.97
2023-05-30T04:56:24.552Z,3.55
2023-05-30T04:58:54.469Z,2.60
2023-05-30T05:01:22.401Z,2.67
2023-05-30T05:03:49.403Z,3.10
2023-05-30T05:06:16.269Z,2.67
2023-05-30T05:08:42.932Z,3.65
2023-05-30T05:11:10.305Z,3.03
2023-05-30T05:13:38.581Z,2.70
2023-05-30T05:16:05.909Z,3.60
2023-05-30T05:18:32.941Z,3.67
2023-05-30T05:21:00.154Z,3.05
2023-05-30T05:23:29.184Z,2.97
2023-05-30T05:25:57.545Z,3.22
2023-05-30T05:28:24.507Z,2.55
2023-05-30T05:30:51.239Z,3.60
2023-05-30T05:33:17.878Z,3.38
2023-05-30T05:35:47.886Z,2.50
2023-05-30T05:38:17.449Z,3.53
2023-05-30T05:40:44.235Z,3.05
2023-05-30T05:43:11.098Z,3.20
2023-05-30T05:45:37.767Z,3.00
2023-05-30T05:48:04.728Z,3.25
2023-05-30T05:50:31.824Z,2.60
2023-05-30T05:52:58.435Z,2.53
2023-05-30T05:55:25.094Z,2.75
2023-05-30T05:57:57.147Z,2.97
2023-05-30T06:00:25.382Z,2.70
2023-05-30T06:02:52.236Z,3.65
2023-05-30T06:05:19.067Z,2.70
2023-05-30T06:07:45.850Z,2.53
2023-05-30T06:10:12.489Z,2.92
2023-05-30T06:12:39.302Z,2.70
2023-05-30T06:15:08.501Z,3.03
2023-05-30T06:17:35.893Z,2.60
2023-05-30T06:20:03.626Z,2.30
2023-05-30T06:22:30.306Z,2.85
2023-05-30T06:24:58.588Z,3.00
2023-05-30T06:27:25.351Z,2.75
2023-05-30T06:29:53.898Z,2.85
2023-05-30T06:32:20.680Z,2.55
2023-05-30T06:34:47.450Z,2.60
2023-05-30T06:37:16.621Z,2.40
2023-05-30T06:39:43.446Z,3.08
2023-05-30T06:42:10.907Z,2.50
2023-05-30T06:44:38.585Z,2.55
2023-05-30T06:47:07.136Z,2.38
2023-05-30T06:49:33.850Z,2.72
2023-05-30T06:52:00.523Z,3.33
2023-05-30T06:54:27.240Z,2.65
2023-05-30T06:56:53.901Z,3.00
2023-05-30T06:59:22.792Z,2.70
2023-05-30T07:01:49.419Z,2.72
2023-05-30T07:04:16.187Z,2.30
2023-05-30T07:06:44.439Z,2.58
2023-05-30T07:09:11.320Z,2.45
2023-05-30T07:11:37.933Z,2.85
2023-05-30T07:14:06.613Z,2.17
2023-05-30T07:16:33.355Z,2.70
2023-05-30T07:19:11.785Z,2.30
2023-05-30T07:21:39.708Z,2.67
2023-05-30T07:24:06.861Z,2.35
2023-05-30T07:26:34.267Z,2.92
2023-05-30T07:29:03.157Z,2.55
2023-05-30T07:31:31.853Z,2.70
2023-05-30T07:33:58.670Z,2.80
2023-05-30T07:36:26.032Z,1.85
2023-05-30T07:38:52.642Z,2.70
2023-05-30T07:41:19.365Z,2.92
2023-05-30T07:43:46.120Z,2.17
2023-05-30T07:46:12.820Z,3.70
2023-05-30T07:48:39.538Z,3.20
2023-05-30T07:51:07.106Z,3.20
2023-05-30T07:53:33.723Z,2.72
2023-05-30T07:56:00.631Z,2.28
2023-05-30T07:58:27.222Z,2.47
2023-05-30T08:00:53.892Z,2.58
2023-05-30T08:03:20.650Z,2.70
2023-05-30T08:05:53.214Z,2.65
2023-05-30T08:08:20.145Z,2.90
2023-05-30T08:10:46.853Z,3.00
2023-05-30T08:13:16.394Z,2.75
2023-05-30T08:15:44.803Z,2.67
2023-05-30T08:18:12.149Z,3.28
2023-05-30T08:20:39.675Z,2.60
2023-05-30T08:23:06.587Z,2.63
2023-05-30T08:25:34.606Z,2.60
2023-05-30T08:28:02.642Z,2.65
2023-05-30T08:30:29.918Z,2.58
2023-05-30T08:32:57.127Z,2.60
2023-05-30T08:35:25.311Z,2.22
2023-05-30T08:37:54.253Z,2.60
2023-05-30T08:40:23.954Z,2.40
2023-05-30T08:42:50.754Z,2.65
2023-05-30T08:45:19.920Z,2.75
2023-05-30T08:47:47.438Z,2.13
2023-05-30T08:50:14.810Z,2.63
2023-05-30T08:52:43.944Z,2.45
2023-05-30T08:55:17.469Z,2.30
2023-05-30T08:57:57.257Z,2.53
2023-05-30T09:00:24.691Z,2.63
2023-05-30T09:02:56.638Z,2.53
2023-05-30T09:05:24.048Z,3.05
2023-05-30T09:07:50.914Z,2.30
2023-05-30T09:10:18.058Z,2.40
2023-05-30T09:12:44.897Z,2.40
2023-05-30T09:15:11.946Z,2.50
2023-05-30T09:17:38.596Z,2.95
2023-05-30T09:20:11.104Z,3.20
2023-05-30T09:22:37.964Z,2.40
2023-05-30T09:25:06.636Z,2.80
2023-05-30T09:27:36.978Z,2.08
2023-05-30T09:30:10.585Z,2.53
2023-05-30T09:32:42.294Z,2.63
2023-05-30T09:35:11.219Z,2.45
2023-05-30T09:37:40.112Z,3.10
2023-05-30T09:40:09.065Z,2.88
2023-05-30T09:42:51.858Z,2.58
2023-05-30T09:45:25.562Z,2.70
2023-05-30T09:47:53.570Z,3.03
2023-05-30T09:50:24.735Z,3.42
2023-05-30T09:52:57.403Z,2.42
2023-05-30T09:55:30.184Z,2.53
2023-05-30T09:57:56.836Z,2.88
2023-05-30T10:00:29.479Z,3.00
2023-05-30T10:02:59.113Z,3.00
2023-05-30T10:05:30.443Z,2.67
2023-05-30T10:07:59.338Z,3.05
2023-05-30T10:10:26.417Z,3.03
2023-05-30T10:12:55.004Z,2.53
2023-05-30T10:15:23.202Z,2.55
2023-05-30T10:18:11.112Z,3.13
2023-05-30T10:20:39.485Z,2.75
2023-05-30T10:23:12.471Z,2.75
2023-05-30T10:25:44.743Z,3.15
2023-05-30T10:28:19.237Z,2.85
2023-05-30T10:30:48.751Z,2.90
2023-05-30T10:33:18.920Z,2.97
2023-05-30T10:35:49.537Z,2.58
2023-05-30T10:38:17.307Z,2.72
2023-05-30T10:41:12.448Z,3.20
2023-05-30T10:44:08.365Z,2.90
2023-05-30T10:47:12.033Z,2.70
2023-05-30T10:49:41.640Z,2.35
2023-05-30T10:52:12.494Z,2.97
2023-05-30T10:54:39.174Z,3.05
2023-05-30T10:57:32.068Z,2.35
2023-05-30T11:00:10.591Z,2.40
2023-05-30T11:02:39.282Z,2.67
2023-05-30T11:05:13.115Z,2.78
2023-05-30T11:07:44.031Z,2.50
2023-05-30T11:10:14.412Z,2.65
2023-05-30T11:12:49.205Z,2.40
2023-05-30T11:15:31.002Z,2.90
2023-05-30T11:17:57.642Z,2.53
2023-05-30T11:20:24.406Z,2.75
2023-05-30T11:23:03.489Z,2.80
2023-05-30T11:25:32.701Z,2.78
2023-05-30T11:28:05.488Z,3.67
2023-05-30T11:30:34.467Z,2.70
2023-05-30T11:33:01.243Z,2.40
2023-05-30T11:35:28.936Z,2.50
2023-05-30T11:37:57.837Z,2.75
2023-05-30T11:40:25.267Z,2.95
2023-05-30T11:42:55.371Z,2.90
2023-05-30T11:45:31.715Z,2.85
2023-05-30T11:48:07.063Z,2.85
2023-05-30T11:50:44.153Z,2.85
2023-05-30T11:53:15.554Z,3.20
2023-05-30T11:55:51.561Z,3.20
2023-05-30T11:58:19.868Z,3.08
2023-05-30T12:00:49.481Z,3.17
2023-05-30T12:03:19.788Z,3.05
2023-05-30T12:05:49.479Z,3.22
2023-05-30T12:08:20.266Z,3.17
2023-05-30T12:10:50.967Z,2.55
2023-05-30T12:13:21.956Z,3.10
2023-05-30T12:15:49.722Z,2.85
2023-05-30T12:18:17.707Z,2.85
2023-05-30T12:20:45.824Z,2.70
2023-05-30T12:23:12.756Z,3.10
2023-05-30T12:25:39.768Z,3.50
2023-05-30T12:28:06.710Z,3.38
2023-05-30T12:30:41.405Z,3.13
2023-05-30T12:33:18.609Z,3.28
2023-05-30T12:35:46.642Z,3.15
2023-05-30T12:38:15.833Z,3.53
2023-05-30T12:40:46.131Z,3.10
2023-05-30T12:43:14.326Z,2.90
2023-05-30T12:45:44.743Z,2.95
2023-05-30T12:48:13.425Z,3.45
2023-05-30T12:50:40.108Z,3.15
2023-05-30T12:53:08.498Z,2.95
2023-05-30T12:55:35.459Z,2.92
2023-05-30T12:58:02.359Z,3.42
2023-05-30T13:00:29.062Z,2.75
2023-05-30T13:02:55.879Z,3.28
2023-05-30T13:05:22.544Z,3.45
2023-05-30T13:07:51.061Z,3.00
2023-05-30T13:10:17.794Z,3.50
2023-05-30T13:12:44.478Z,3.08
2023-05-30T13:15:11.415Z,2.70
2023-05-30T13:17:40.451Z,3.65
2023-05-30T13:20:09.635Z,3.25
2023-05-30T13:22:37.304Z,3.55
2023-05-30T13:25:04.403Z,3.22
2023-05-30T13:27:31.139Z,2.78
2023-05-30T13:29:57.789Z,2.78
2023-05-30T13:32:26.699Z,2.30
2023-05-30T13:34:54.636Z,3.78
2023-05-30T13:37:22.529Z,3.67
2023-05-30T13:39:50.132Z,3.40
2023-05-30T13:42:17.469Z,2.88
2023-05-30T13:44:44.198Z,3.30
2023-05-30T13:47:10.791Z,3.55
2023-05-30T13:49:38.324Z,2.85
2023-05-30T13:52:05.265Z,2.97
2023-05-30T13:54:32.181Z,3.13
2023-05-30T13:56:59.027Z,2.85
2023-05-30T13:59:28.009Z,2.80
2023-05-30T14:01:55.198Z,3.03
2023-05-30T14:04:22.059Z,2.67
2023-05-30T14:06:51.997Z,2.45
2023-05-30T14:09:22.895Z,2.58
2023-05-30T14:11:49.947Z,3.10
2023-05-30T14:14:21.375Z,2.78
2023-05-30T14:16:48.027Z,2.47
2023-05-30T14:19:14.809Z,3.08
2023-05-30T14:21:42.846Z,2.97
2023-05-30T14:24:09.585Z,2.78
2023-05-30T14:26:37.730Z,2.47
2023-05-30T14:29:04.863Z,2.85
2023-05-30T14:31:31.611Z,2.53
2023-05-30T14:33:58.525Z,2.30
2023-05-30T14:36:25.361Z,3.03
2023-05-30T14:38:52.120Z,2.67
2023-05-30T14:41:19.018Z,3.10
2023-05-30T14:43:45.698Z,2.53
2023-05-30T14:46:12.426Z,2.95
2023-05-30T14:48:39.080Z,2.95
2023-05-30T14:51:05.722Z,2.75
2023-05-30T14:53:33.708Z,3.35
2023-05-30T14:56:01.363Z,2.55
2023-05-30T14:58:28.293Z,2.78
2023-05-30T15:00:55.248Z,2.70
2023-05-30T15:03:22.298Z,2.97
2023-05-30T15:05:48.954Z,3.03
2023-05-30T15:08:15.535Z,3.10
2023-05-30T15:10:43.015Z,2.80
2023-05-30T15:13:09.856Z,3.00
2023-05-30T15:15:36.457Z,2.60
2023-05-30T15:18:03.240Z,2.72
2023-05-30T15:20:29.949Z,3.00
2023-05-30T15:22:56.726Z,2.58
2023-05-30T15:25:23.325Z,2.88
2023-05-30T15:27:51.051Z,3.28
2023-05-30T15:30:18.502Z,2.72
2023-05-30T15:32:45.138Z,2.65
2023-05-30T15:35:11.923Z,2.33
2023-05-30T15:37:38.593Z,2.40
2023-05-30T15:40:06.599Z,2.25
2023-05-30T15:42:33.406Z,2.40
2023-05-30T15:45:00.218Z,2.35
2023-05-30T15:47:26.851Z,2.47
2023-05-30T15:49:53.773Z,2.40
2023-05-30T15:52:21.683Z,2.53
2023-05-30T15:54:48.350Z,2.33
2023-05-30T15:57:15.064Z,2.20
2023-05-30T15:59:41.699Z,2.80
2023-05-30T16:02:08.767Z,2.30
2023-05-30T16:04:36.434Z,2.15
2023-05-30T16:07:03.380Z,2.35
2023-05-30T16:09:30.154Z,1.88
2023-05-30T16:11:56.879Z,2.30
2023-05-30T16:14:25.880Z,2.17
2023-05-30T16:16:54.381Z,2.22
2023-05-30T16:19:21.067Z,2.00
2023-05-30T16:21:48.726Z,1.48
2023-05-30T16:24:15.434Z,1.80
2023-05-30T16:26:42.615Z,2.05
2023-05-30T16:29:09.367Z,2.25
2023-05-30T16:31:36.233Z,1.40
2023-05-30T16:34:04.533Z,1.50
2023-05-30T16:36:31.574Z,1.60
2023-05-30T16:38:58.609Z,1.70
2023-05-30T16:41:25.765Z,1.45
2023-05-30T16:43:52.465Z,1.65
2023-05-30T16:46:19.138Z,1.45
2023-05-30T16:48:45.939Z,1.50
2023-05-30T16:51:13.026Z,1.65
2023-05-30T16:53:41.474Z,2.33
2023-05-30T16:56:15.696Z,1.70
2023-05-30T16:58:44.579Z,1.70
2023-05-30T17:01:11.276Z,1.70
2023-05-30T17:03:38.113Z,2.22
2023-05-30T17:06:05.512Z,1.42
2023-05-30T17:08:32.569Z,1.98
2023-05-30T17:10:59.622Z,1.60
2023-05-30T17:13:26.658Z,1.35
2023-05-30T17:15:53.288Z,1.55
2023-05-30T17:18:19.889Z,1.70
2023-05-30T17:20:47.133Z,1.50
2023-05-30T17:23:13.794Z,1.42
2023-05-30T17:25:50.810Z,1.13
2023-05-30T17:28:27.155Z,1.15
2023-05-30T17:30:55.593Z,1.30
2023-05-30T17:33:22.295Z,1.08
2023-05-30T17:35:49.055Z,1.20
2023-05-30T17:38:15.940Z,1.15
2023-05-30T17:40:42.607Z,1.20
2023-05-30T17:43:09.640Z,1.48
2023-05-30T17:45:36.317Z,1.90
2023-05-30T17:48:04.747Z,2.03
2023-05-30T17:50:34.039Z,1.38
2023-05-30T17:53:01.885Z,1.02
2023-05-30T17:55:28.558Z,1.30
2023-05-30T17:57:55.419Z,1.17
2023-05-30T18:00:24.532Z,1.15
2023-05-30T18:02:51.873Z,0.98
2023-05-30T18:05:20.213Z,1.70
2023-05-30T18:07:46.916Z,1.60
2023-05-30T18:10:15.175Z,1.40
2023-05-30T18:12:42.508Z,1.08
2023-05-30T18:15:09.919Z,1.20
2023-05-30T18:17:36.788Z,0.95
2023-05-30T18:20:06.314Z,1.05
2023-05-30T18:22:33.173Z,1.00
2023-05-30T18:25:00.637Z,1.33
2023-05-30T18:27:28.102Z,1.27
2023-05-30T18:29:58.526Z,1.10
2023-05-30T18:32:25.135Z,1.48
2023-05-30T18:34:51.803Z,1.65
2023-05-30T18:37:21.817Z,1.80
2023-05-30T18:39:50.748Z,1.20
2023-05-30T18:42:17.572Z,1.40
2023-05-30T18:44:44.224Z,1.50
2023-05-30T18:47:11.482Z,1.00
2023-05-30T18:49:38.743Z,1.13
2023-05-30T18:52:05.791Z,1.20
2023-05-30T18:54:32.503Z,1.05
2023-05-30T18:56:59.125Z,1.35
2023-05-30T18:59:27.882Z,1.08
2023-05-30T19:01:56.818Z,1.00
2023-05-30T19:04:23.751Z,1.40
2023-05-30T19:06:58.077Z,1.10
2023-05-30T19:09:25.289Z,1.00
2023-05-30T19:11:52.149Z,1.30
2023-05-30T19:14:19.906Z,1.27
2023-05-30T19:16:46.558Z,0.80
2023-05-30T19:19:13.170Z,1.10
2023-05-30T19:21:39.823Z,1.17
2023-05-30T19:24:06.682Z,1.13
2023-05-30T19:29:24.556Z,1.00
2023-05-30T19:31:51.188Z,1.30
2023-05-30T19:34:17.813Z,3.75
2023-05-30T19:36:44.553Z,5.45
2023-05-30T19:39:11.610Z,1.73
2023-05-30T19:41:38.635Z,1.55
2023-05-30T19:44:05.629Z,2.75
2023-05-30T19:46:32.306Z,1.70
2023-05-30T19:48:59.267Z,1.10
2023-05-30T19:51:25.995Z,1.00
2023-05-30T19:53:52.601Z,1.25
2023-05-30T19:56:19.192Z,1.13
2023-05-30T19:58:45.822Z,1.13
2023-05-30T20:01:12.537Z,1.23
2023-05-30T20:03:41.098Z,1.38
2023-05-30T20:06:07.757Z,0.88
2023-05-30T20:08:34.406Z,1.05
2023-05-30T20:11:03.540Z,1.05
2023-05-30T20:13:30.267Z,1.27
2023-05-30T20:15:57.133Z,1.30
2023-05-30T20:18:23.845Z,1.35
2023-05-30T20:20:50.667Z,1.25
2023-05-30T20:23:17.308Z,1.17
2023-05-30T20:25:45.290Z,0.88
2023-05-30T20:28:18.158Z,1.20
2023-05-30T20:30:45.713Z,1.42
2023-05-30T20:33:12.448Z,1.45
2023-05-30T20:35:39.447Z,1.40
2023-05-30T20:38:06.069Z,1.17
2023-05-30T20:40:32.698Z,1.23
2023-05-30T20:42:59.316Z,1.10
2023-05-30T20:45:30.189Z,1.90
2023-05-30T20:47:56.884Z,1.90
2023-05-30T20:50:24.119Z,1.98
2023-05-30T20:52:50.745Z,1.27
2023-05-30T20:55:17.417Z,1.23
2023-05-30T20:57:44.090Z,1.17
2023-05-30T21:00:11.380Z,1.05
2023-05-30T21:02:38.231Z,1.25
2023-05-30T21:05:06.105Z,0.98
2023-05-30T21:07:33.610Z,1.20
2023-05-30T21:10:00.445Z,1.08
2023-05-30T21:12:27.263Z,1.02
2023-05-30T21:14:53.940Z,1.15
2023-05-30T21:17:20.627Z,1.40
2023-05-30T21:19:47.312Z,1.23
2023-05-30T21:22:13.993Z,1.30
2023-05-30T21:24:42.582Z,1.23
2023-05-30T21:27:09.221Z,1.40
2023-05-30T21:29:36.076Z,1.30
2023-05-30T21:32:02.741Z,1.40
2023-05-30T21:34:29.404Z,1.40
2023-05-30T21:36:56.195Z,1.60
2023-05-30T21:39:22.829Z,1.33
2023-05-30T21:41:49.496Z,1.17
2023-05-30T21:44:16.133Z,1.17
2023-05-30T21:46:42.793Z,1.70
2023-05-30T21:49:09.474Z,1.30
2023-05-30T21:51:36.175Z,1.42
2023-05-30T21:54:03.718Z,1.50
2023-05-30T21:56:34.308Z,2.00
2023-05-30T21:59:01.214Z,1.50
2023-05-30T22:01:28.029Z,1.33
2023-05-30T22:03:54.980Z,1.42
2023-05-30T22:06:21.816Z,1.33
2023-05-30T22:08:50.728Z,1.45
2023-05-30T22:11:17.476Z,1.33
2023-05-30T22:13:44.160Z,1.80
2023-05-30T22:16:10.863Z,1.63
2023-05-30T22:18:37.518Z,1.50
2023-05-30T22:21:04.230Z,1.60
2023-05-30T22:23:31.199Z,1.52
2023-05-30T22:25:57.802Z,1.73
2023-05-30T22:28:26.122Z,1.77
2023-05-30T22:30:52.789Z,1.95
2023-05-30T22:33:19.420Z,1.50
2023-05-30T22:35:46.094Z,1.40
2023-05-30T22:38:12.744Z,1.60
2023-05-30T22:40:39.398Z,1.20
2023-05-30T22:43:05.983Z,1.35
2023-05-30T22:45:32.669Z,1.77
2023-05-30T22:48:00.504Z,2.10
2023-05-30T22:50:27.394Z,1.80
2023-05-30T22:52:54.001Z,1.63
2023-05-30T22:55:20.669Z,1.70
2023-05-30T22:57:47.360Z,1.67
2023-05-30T23:00:14.723Z,2.05
2023-05-30T23:02:41.509Z,1.90
2023-05-30T23:05:09.234Z,2.00
2023-05-30T23:07:35.864Z,1.75
2023-05-30T23:10:03.551Z,1.50
2023-05-30T23:12:30.327Z,1.58
2023-05-30T23:14:57.128Z,1.60
2023-05-30T23:17:23.747Z,1.83
2023-05-30T23:19:50.407Z,1.50
2023-05-30T23:22:17.145Z,2.03
2023-05-30T23:24:43.716Z,1.95
2023-05-30T23:27:10.347Z,1.50
2023-05-30T23:29:37.000Z,1.73
2023-05-30T23:32:03.827Z,1.92
2023-05-30T23:34:30.423Z,1.73
2023-05-30T23:36:57.041Z,1.48
2023-05-30T23:39:23.697Z,1.70
2023-05-30T23:41:50.344Z,2.03
2023-05-30T23:44:16.942Z,1.60
2023-05-30T23:46:43.657Z,1.95
2023-05-30T23:49:10.428Z,1.50
2023-05-30T23:51:37.253Z,1.98
2023-05-30T23:54:03.975Z,2.10
2023-05-30T23:56:30.648Z,1.80
2023-05-30T23:58:57.268Z,1.90
